FSPO2: Beaver River at HWY 183 nr Ft Supply 2NW

                                SHEF ID:       FSPO2     Beaver R at Hwy 183 nr Ft Supply
STATION TYPE:

PRECIP STAGE RIV-FLOW VOLTAGE BAT-LOAD
in ft cfs volt volt
Ccp-Rev Ccp-Rev Ccp-Rev Ccp-Rev Ccp-Rev
(America/Chicago)
04/14 00:00 0.00 2.66 0 12.81 12.73
04/14 01:00 0.00 2.66 0 12.81 12.73
04/14 02:00 0.00 2.65 0 12.81 12.65
04/14 03:00 0.00 2.65 0 12.73 12.65
04/14 04:00 0.00 2.65 0 12.73 12.65
04/14 05:00 0.00 2.64 0 12.73 12.65
04/14 06:00 0.00 2.63 0 12.73 12.65
04/14 07:00 0.00 2.65 0 12.73 12.57
04/14 08:00 0.00 2.66 0 12.81 12.65
04/14 09:00 0.00 2.65 0 13.29 13.05
04/14 10:00 0.00 2.66 0 14.08 13.44
04/14 11:00 0.00 2.66 0 13.92 13.29
04/14 12:00 0.00 2.67 0 13.68 13.21
04/14 13:00 0.00 2.65 0 13.21 13.05
04/14 14:00 0.00 2.65 0 13.13 12.97
04/14 15:00 0.00 2.66 0 13.05 12.97
04/14 16:00 0.00 2.66 0 13.05 12.89
04/14 17:00 0.00 2.65 0 13.05 12.89
04/14 18:00 0.00 2.65 0 13.05 12.89
04/14 19:00 0.00 2.65 0 12.97 12.81
04/14 20:00 0.00 2.65 0 12.89 12.81
04/14 21:00 0.00 2.66 0 12.89 12.81
04/14 22:00 ---- ---- ---- ---- ----
04/14 23:00 ---- ---- ---- ---- ----
Data processed at Mon 15Apr2024 02:54 GMT

Parsing this webpage?

Checkout our new Data API! CWMSDataAPI (CDA)

Timeseries IDs (TSIDs)

TSIDs used from left to right in the data table
FTSP.Precip-Inc.Total.1Hour.1Hour.Ccp-Rev
FTSP.Stage.Inst.1Hour.0.Ccp-Rev
FTSP.Flow.Inst.1Hour.0.Ccp-Rev
FTSP.Volt-Battery.Inst.1Hour.0.Ccp-Rev
FTSP.Volt-Battery Load.Inst.1Hour.0.Ccp-Rev

                            

All information presented herein is the property of the government of the United States of America and may be revised or deleted at any time without prior notice. Dissemination of this information without the expressed written consent of the Public Affairs Office, Tulsa District U.S. Army Corps of Engineers is strictly prohibited. These data are gathered electronically and, as presented, have NOT undergone any form of quality control. These data are NOT guaranteed to be valid or correct.